Time;durP1;ratioP1;P1;durP2;ratioP2;P2;SDS_P1;SDS_P2;PMS_P1;PMS_P2;Temp;Humidity;BMP_temperature;BMP_pressure;BME280_temperature;BME280_humidity;BME280_pressure;Samples;Min_cycle;Max_cycle;Signal;HPM_P1;HPM_P2
2024/01/22 00:00:13;;;;;;;4.70;2.20;;;;;;;12.13;47.33;100640.72;682404;28;1264;-86
2024/01/22 00:00:34;;;;;;;4.40;2.03;;;;;;;12.12;47.56;100681.72;674500;29;1279;-87
2024/01/22 00:00:55;;;;;;;3.50;1.73;;;;;;;12.10;47.38;100654.63;674762;29;781;-87
2024/01/22 00:01:16;;;;;;;2.83;1.65;;;;;;;12.15;47.41;100652.09;679692;28;1680;-88
2024/01/22 00:01:37;;;;;;;3.50;1.98;;;;;;;11.85;47.86;100621.88;680830;29;1170;-86
2024/01/22 00:01:57;;;;;;;3.77;2.00;;;;;;;11.93;47.67;100649.06;683196;29;737;-86
2024/01/22 00:02:18;;;;;;;4.03;2.10;;;;;;;12.04;47.58;100673.69;683036;28;1475;-86
2024/01/22 00:02:38;;;;;;;3.57;1.90;;;;;;;12.17;47.79;100632.97;683277;28;1227;-87
2024/01/22 00:03:00;;;;;;;3.45;1.88;;;;;;;12.11;47.57;100629.34;683057;29;781;-87
2024/01/22 00:03:21;;;;;;;3.00;1.80;;;;;;;12.22;47.37;100619.97;678782;29;1469;-87
2024/01/22 00:03:42;;;;;;;2.67;1.70;;;;;;;12.29;47.42;100631.44;677792;29;1241;-86
2024/01/22 00:04:03;;;;;;;2.95;1.85;;;;;;;12.23;47.52;100634.81;675136;29;1451;-88
2024/01/22 00:04:24;;;;;;;3.40;1.85;;;;;;;12.16;47.23;100618.13;679046;29;1508;-86
2024/01/22 00:04:44;;;;;;;3.13;1.75;;;;;;;12.29;47.15;100620.97;675406;29;1292;-87
2024/01/22 00:05:05;;;;;;;2.63;1.67;;;;;;;12.19;47.56;100609.44;677904;29;1007;-87
2024/01/22 00:05:25;;;;;;;2.30;1.65;;;;;;;12.23;47.13;100629.56;675846;29;1579;-87
2024/01/22 00:05:46;;;;;;;3.10;1.77;;;;;;;12.26;47.37;100613.94;677809;29;852;-87
2024/01/22 00:06:06;;;;;;;4.93;2.10;;;;;;;12.21;47.14;100620.81;677902;29;1269;-86
2024/01/22 00:06:27;;;;;;;6.10;2.20;;;;;;;12.27;47.26;100605.25;674675;29;1011;-87
2024/01/22 00:06:48;;;;;;;6.20;2.30;;;;;;;12.12;47.42;100657.28;676121;29;1119;-87
2024/01/22 00:07:08;;;;;;;3.85;1.75;;;;;;;11.96;47.57;100632.53;677644;29;1202;-86
2024/01/22 00:07:29;;;;;;;2.60;1.60;;;;;;;12.13;47.52;100619.78;674907;29;1587;-87
2024/01/22 00:07:49;;;;;;;2.50;1.50;;;;;;;12.18;47.63;100628.63;674680;29;821;-87
2024/01/22 00:08:10;;;;;;;2.70;1.77;;;;;;;12.18;47.16;100599.84;677737;29;1476;-87
2024/01/22 00:08:30;;;;;;;2.53;1.77;;;;;;;12.20;47.62;100625.19;675088;29;1500;-87
2024/01/22 00:08:51;;;;;;;2.30;1.80;;;;;;;12.23;47.36;100637.41;672752;29;754;-86
2024/01/22 00:09:11;;;;;;;2.30;1.65;;;;;;;12.12;47.65;100618.94;669859;29;1283;-87
2024/01/22 00:09:32;;;;;;;2.73;1.80;;;;;;;12.16;47.48;100598.94;678014;29;1237;-87
2024/01/22 00:09:53;;;;;;;2.58;1.80;;;;;;;12.16;47.53;100638.19;680524;29;853;-87
2024/01/22 00:10:13;;;;;;;3.00;1.92;;;;;;;12.21;47.51;100607.75;677664;29;1480;-87
2024/01/22 00:10:34;;;;;;;2.63;1.80;;;;;;;12.12;47.66;100595.38;675284;29;1244;-86
2024/01/22 00:10:55;;;;;;;2.83;1.90;;;;;;;12.28;47.24;100599.16;675244;29;1305;-87
2024/01/22 00:11:15;;;;;;;2.77;1.83;;;;;;;12.23;47.59;100603.41;677617;29;1465;-87
2024/01/22 00:11:36;;;;;;;2.58;1.73;;;;;;;12.29;47.07;100582.59;677864;29;1270;-87
2024/01/22 00:11:56;;;;;;;2.63;1.80;;;;;;;12.38;47.13;100583.59;675231;29;838;-87
2024/01/22 00:12:17;;;;;;;2.50;1.80;;;;;;;12.37;47.02;100581.84;678813;29;1468;-86
2024/01/22 00:12:38;;;;;;;2.60;1.85;;;;;;;12.45;46.89;100590.72;677092;29;990;-86
2024/01/22 00:12:58;;;;;;;2.30;1.70;;;;;;;12.46;46.90;100600.31;676946;29;1125;-86
2024/01/22 00:13:19;;;;;;;2.33;1.70;;;;;;;12.43;46.79;100597.66;677883;29;1465;-86
2024/01/22 00:13:39;;;;;;;2.30;1.70;;;;;;;12.44;46.82;100582.00;679870;29;1026;-86
2024/01/22 00:14:00;;;;;;;2.90;1.80;;;;;;;12.34;47.10;100614.97;679930;29;883;-86
2024/01/22 00:14:21;;;;;;;3.53;1.75;;;;;;;12.32;47.03;100603.59;682020;29;1578;-86
2024/01/22 00:14:41;;;;;;;4.20;1.80;;;;;;;12.38;46.73;100596.69;679542;29;1259;-86
2024/01/22 00:15:02;;;;;;;3.30;1.70;;;;;;;12.28;47.16;100579.97;677769;29;1078;-87
2024/01/22 00:15:22;;;;;;;3.42;1.63;;;;;;;12.38;47.01;100575.75;676291;29;1470;-87
2024/01/22 00:15:43;;;;;;;7.40;1.80;;;;;;;12.40;46.84;100619.44;677681;29;917;-87
2024/01/22 00:16:04;;;;;;;7.43;1.80;;;;;;;12.09;47.30;100602.28;677647;29;1339;-86
2024/01/22 00:16:25;;;;;;;5.38;1.67;;;;;;;12.21;47.29;100605.13;677436;29;1906;-87
2024/01/22 00:16:46;;;;;;;2.08;1.40;;;;;;;12.28;47.31;100593.91;678727;29;1510;-87
2024/01/22 00:17:06;;;;;;;2.47;1.75;;;;;;;12.34;47.14;100588.81;677836;29;1063;-87
2024/01/22 00:17:27;;;;;;;3.40;1.90;;;;;;;12.39;47.17;100569.66;676898;29;1596;-88
2024/01/22 00:17:47;;;;;;;4.70;2.10;;;;;;;12.18;47.34;100573.69;670022;29;1219;-86
2024/01/22 00:18:08;;;;;;;4.20;1.75;;;;;;;12.18;47.49;100592.00;672569;29;1047;-86
2024/01/22 00:18:28;;;;;;;3.60;1.63;;;;;;;12.26;47.42;100585.16;674452;29;1510;-87
2024/01/22 00:18:49;;;;;;;1.93;1.43;;;;;;;12.31;47.17;100573.03;679941;29;1679;-88
2024/01/22 00:19:10;;;;;;;2.28;1.73;;;;;;;12.29;47.24;100587.81;680612;29;1019;-85
2024/01/22 00:19:30;;;;;;;2.40;1.90;;;;;;;12.23;47.29;100597.31;682830;28;1188;-86
2024/01/22 00:19:51;;;;;;;2.77;2.00;;;;;;;12.31;47.51;100596.56;683090;29;1183;-87
2024/01/22 00:20:11;;;;;;;3.38;2.00;;;;;;;12.28;47.16;100591.31;680507;29;991;-85
2024/01/22 00:20:32;;;;;;;3.47;1.83;;;;;;;12.12;47.34;100584.03;680313;29;1057;-85
2024/01/22 00:20:53;;;;;;;4.63;1.87;;;;;;;12.24;47.58;100586.88;680392;29;1211;-87
2024/01/22 00:21:13;;;;;;;3.72;1.60;;;;;;;12.20;47.55;100572.88;680283;29;1472;-87
2024/01/22 00:21:41;;;;;;;2.00;1.55;;;;;;;12.26;47.61;100589.50;677721;29;1387;-86
2024/01/22 00:22:01;;;;;;;2.10;1.50;;;;;;;12.38;47.02;100586.22;678038;29;872;-87
2024/01/22 00:22:22;;;;;;;2.30;1.58;;;;;;;12.45;46.97;100567.16;676387;29;1563;-87
2024/01/22 00:22:42;;;;;;;3.13;1.80;;;;;;;12.54;46.87;100584.78;675069;29;1276;-86
2024/01/22 00:23:03;;;;;;;2.60;1.70;;;;;;;12.39;47.12;100577.53;675113;29;1214;-85
2024/01/22 00:23:24;;;;;;;2.10;1.55;;;;;;;12.24;47.43;100579.03;673418;29;1663;-87
2024/01/22 00:23:45;;;;;;;3.40;1.50;;;;;;;12.41;47.30;100578.44;672531;29;1396;-87
2024/01/22 00:24:05;;;;;;;3.90;1.60;;;;;;;12.28;47.43;100585.22;672445;29;1190;-87
2024/01/22 00:24:26;;;;;;;5.15;1.70;;;;;;;12.33;47.43;100567.84;676710;29;1497;-87
2024/01/22 00:24:47;;;;;;;3.08;1.60;;;;;;;12.35;47.03;100581.81;675343;29;793;-88
2024/01/22 00:25:08;;;;;;;2.90;1.60;;;;;;;12.33;47.27;100558.25;675151;29;950;-87
2024/01/22 00:25:28;;;;;;;1.97;1.57;;;;;;;12.31;47.25;100575.66;674335;29;1502;-86
2024/01/22 00:25:49;;;;;;;1.65;1.38;;;;;;;12.32;47.38;100574.81;675179;29;1308;-87
2024/01/22 00:26:12;;;;;;;2.10;1.60;;;;;;;12.43;47.14;100553.19;680399;29;1373;-88
2024/01/22 00:26:33;;;;;;;3.67;1.90;;;;;;;12.53;46.88;100555.09;677705;29;1007;-88
2024/01/22 00:26:53;;;;;;;6.22;2.30;;;;;;;12.51;46.69;100555.91;680416;29;1390;-87
2024/01/22 00:27:14;;;;;;;5.70;2.00;;;;;;;12.45;46.91;100541.88;677378;29;1586;-87
2024/01/22 00:27:34;;;;;;;4.68;1.85;;;;;;;12.55;46.66;100568.22;675231;29;1111;-86
2024/01/22 00:27:55;;;;;;;2.83;1.63;;;;;;;12.53;46.58;100555.09;677269;29;1316;-87
2024/01/22 00:28:16;;;;;;;3.10;1.80;;;;;;;12.56;46.81;100555.16;674994;29;1595;-87
2024/01/22 00:28:37;;;;;;;2.13;1.67;;;;;;;12.38;46.72;100573.16;672639;29;1032;-87
2024/01/22 00:28:57;;;;;;;1.80;1.53;;;;;;;12.22;46.98;100583.34;677975;29;1684;-85
2024/01/22 00:29:18;;;;;;;1.65;1.50;;;;;;;12.32;47.20;100518.97;679998;29;1573;-87
2024/01/22 00:29:39;;;;;;;2.65;1.63;;;;;;;12.31;47.38;100574.78;680249;29;833;-87
2024/01/22 00:29:59;;;;;;;4.83;1.80;;;;;;;12.28;47.46;100596.53;677771;29;1177;-87
2024/01/22 00:30:20;;;;;;;5.00;1.80;;;;;;;12.43;47.03;100548.81;674763;29;1309;-86
2024/01/22 00:30:40;;;;;;;3.47;1.70;;;;;;;12.44;47.32;100534.00;675067;29;977;-87
2024/01/22 00:31:01;;;;;;;2.17;1.60;;;;;;;12.44;47.11;100528.75;672510;29;990;-87
2024/01/22 00:31:21;;;;;;;3.10;1.80;;;;;;;12.47;46.91;100534.03;678435;29;1485;-86
2024/01/22 00:31:48;;;;;;;3.43;2.03;;;;;;;12.53;46.65;100526.28;681941;29;1337;-87
2024/01/22 00:32:08;;;;;;;3.42;1.90;;;;;;;12.56;46.79;100536.84;679403;28;1962;-88
2024/01/22 00:32:29;;;;;;;3.10;1.80;;;;;;;12.53;46.92;100534.16;679974;29;1504;-88
2024/01/22 00:32:51;;;;;;;4.30;1.50;;;;;;;12.28;47.10;100545.97;680312;29;1257;-87
2024/01/22 00:33:11;;;;;;;3.72;1.40;;;;;;;12.46;46.93;100532.28;680285;29;1007;-87
2024/01/22 00:33:32;;;;;;;4.38;1.48;;;;;;;12.50;46.80;100536.72;679962;29;1464;-87
2024/01/22 00:33:53;;;;;;;2.67;1.50;;;;;;;12.48;46.83;100531.44;680460;29;812;-87
2024/01/22 00:34:13;;;;;;;2.67;1.42;;;;;;;12.55;47.11;100524.56;677282;29;1513;-86
2024/01/22 00:34:34;;;;;;;2.77;1.50;;;;;;;12.56;46.73;100531.59;680379;29;996;-87
2024/01/22 00:34:54;;;;;;;3.00;1.70;;;;;;;12.57;46.57;100533.34;672659;29;837;-86
2024/01/22 00:35:15;;;;;;;3.80;1.90;;;;;;;12.26;47.25;100519.75;677277;29;1465;-86
2024/01/22 00:35:36;;;;;;;2.83;1.70;;;;;;;12.39;47.08;100543.50;677559;29;1197;-86
2024/01/22 00:35:56;;;;;;;2.90;1.50;;;;;;;12.37;47.11;100532.13;680312;29;1238;-87
2024/01/22 00:36:17;;;;;;;2.20;1.50;;;;;;;12.36;47.31;100514.69;680344;28;1914;-87
2024/01/22 00:36:37;;;;;;;2.20;1.60;;;;;;;12.31;47.53;100554.72;677822;29;999;-87
2024/01/22 00:36:59;;;;;;;2.00;1.60;;;;;;;12.37;47.41;100537.38;677754;29;861;-86
2024/01/22 00:37:19;;;;;;;2.08;1.70;;;;;;;12.34;47.32;100515.53;674752;29;1458;-86
2024/01/22 00:37:40;;;;;;;5.70;1.77;;;;;;;12.51;47.22;100520.16;674948;29;1166;-87
2024/01/22 00:38:00;;;;;;;7.80;1.90;;;;;;;12.43;47.02;100547.94;671985;29;782;-87
2024/01/22 00:38:21;;;;;;;7.80;1.80;;;;;;;12.41;47.05;100524.34;673176;29;1661;-87
2024/01/22 00:38:42;;;;;;;3.70;1.73;;;;;;;12.47;46.96;100528.81;674855;29;1280;-87
2024/01/22 00:39:03;;;;;;;4.10;1.60;;;;;;;12.45;47.10;100551.47;675104;29;1140;-87
2024/01/22 00:39:23;;;;;;;4.15;1.50;;;;;;;12.44;47.25;100524.44;679125;29;1501;-87
2024/01/22 00:39:44;;;;;;;4.72;1.63;;;;;;;12.52;46.98;100511.44;677745;29;846;-88
2024/01/22 00:40:05;;;;;;;3.83;1.60;;;;;;;12.58;46.76;100528.97;677841;29;1051;-87
2024/01/22 00:40:26;;;;;;;3.53;1.80;;;;;;;12.31;47.05;100507.63;676399;29;1585;-86
2024/01/22 00:40:46;;;;;;;2.63;1.50;;;;;;;12.37;47.38;100503.34;674445;29;1405;-86
2024/01/22 00:41:07;;;;;;;3.15;1.70;;;;;;;12.33;47.14;100503.31;672483;29;1036;-86
2024/01/22 00:41:28;;;;;;;2.50;1.60;;;;;;;12.35;47.18;100524.25;673787;29;1529;-87
2024/01/22 00:41:49;;;;;;;2.43;1.60;;;;;;;12.24;47.45;100515.34;677744;29;805;-86
2024/01/22 00:42:09;;;;;;;1.90;1.40;;;;;;;12.37;47.62;100526.91;674955;29;1188;-87
2024/01/22 00:42:30;;;;;;;2.80;1.58;;;;;;;12.47;47.25;100513.09;674256;29;1592;-86
2024/01/22 00:42:50;;;;;;;2.70;1.70;;;;;;;12.44;47.10;100513.06;675276;29;1363;-86
2024/01/22 00:43:11;;;;;;;3.00;1.80;;;;;;;12.58;47.19;100508.03;677709;29;1317;-87
2024/01/22 00:43:32;;;;;;;2.40;1.65;;;;;;;12.58;46.91;100498.47;679955;29;1593;-87
2024/01/22 00:43:55;;;;;;;2.60;1.77;;;;;;;12.50;46.84;100502.69;677671;29;1185;-87
2024/01/22 00:44:15;;;;;;;3.00;1.88;;;;;;;12.47;46.83;100513.09;680434;28;1118;-87
2024/01/22 00:44:36;;;;;;;3.20;2.10;;;;;;;12.41;47.21;100499.94;685420;28;1197;-87
2024/01/22 00:44:57;;;;;;;3.23;2.00;;;;;;;12.41;47.31;100497.31;680120;29;1696;-87
2024/01/22 00:45:17;;;;;;;2.83;1.92;;;;;;;12.45;47.26;100509.59;679129;29;1594;-87
2024/01/22 00:45:38;;;;;;;4.15;1.88;;;;;;;12.44;47.35;100508.72;680147;29;1190;-85
2024/01/22 00:46:00;;;;;;;4.10;1.70;;;;;;;12.40;47.30;100479.88;683023;29;887;-88
2024/01/22 00:46:21;;;;;;;4.07;1.70;;;;;;;12.39;47.44;100525.19;680977;29;1456;-87
2024/01/22 00:46:42;;;;;;;1.65;1.33;;;;;;;12.39;47.42;100499.00;675143;29;1426;-87
2024/01/22 00:47:03;;;;;;;2.20;1.60;;;;;;;12.45;47.07;100480.81;675034;29;1172;-86
2024/01/22 00:47:23;;;;;;;2.50;1.50;;;;;;;12.55;47.11;100506.25;674890;29;1079;-87
2024/01/22 00:47:44;;;;;;;2.75;1.60;;;;;;;12.62;46.66;100488.91;675118;29;1298;-87
2024/01/22 00:48:05;;;;;;;2.23;1.40;;;;;;;12.45;47.20;100530.53;677176;29;1113;-86
2024/01/22 00:48:26;;;;;;;2.53;1.60;;;;;;;12.45;46.94;100530.53;677314;29;1637;-84
2024/01/22 00:48:46;;;;;;;2.50;1.60;;;;;;;12.51;47.22;100504.47;677695;29;916;-86
2024/01/22 00:49:07;;;;;;;2.50;1.58;;;;;;;12.47;46.95;100500.00;675127;29;1292;-87
2024/01/22 00:49:27;;;;;;;1.80;1.30;;;;;;;12.55;47.23;100506.25;673926;29;1501;-86
2024/01/22 00:49:48;;;;;;;1.50;1.27;;;;;;;12.56;47.08;100496.66;675006;29;722;-86
2024/01/22 00:50:09;;;;;;;1.83;1.48;;;;;;;12.55;47.17;100501.00;675074;29;1219;-86
2024/01/22 00:50:29;;;;;;;1.80;1.60;;;;;;;12.58;47.20;100485.38;674973;29;1595;-87
2024/01/22 00:50:50;;;;;;;2.03;1.60;;;;;;;12.67;47.00;100473.28;672535;29;786;-87
2024/01/22 00:51:10;;;;;;;2.25;1.60;;;;;;;12.64;46.92;100484.59;674943;29;1205;-86
2024/01/22 00:51:31;;;;;;;2.50;1.65;;;;;;;12.58;46.85;100527.25;672299;29;1240;-84
2024/01/22 00:51:52;;;;;;;2.60;1.70;;;;;;;12.58;46.99;100526.38;675073;29;1249;-86
2024/01/22 00:52:12;;;;;;;2.42;1.80;;;;;;;12.47;47.08;100565.44;677614;29;1327;-86
2024/01/22 00:52:33;;;;;;;2.95;1.70;;;;;;;12.48;46.99;100489.59;679389;29;1565;-88
2024/01/22 00:52:54;;;;;;;2.70;1.60;;;;;;;12.64;47.17;100496.81;680381;29;829;-87
2024/01/22 00:53:14;;;;;;;3.10;1.60;;;;;;;12.58;47.05;100511.56;677470;29;1558;-86
2024/01/22 00:53:35;;;;;;;2.20;1.50;;;;;;;12.59;46.99;100501.94;677768;29;1161;-87
2024/01/22 00:53:56;;;;;;;2.80;1.70;;;;;;;12.60;46.98;100527.28;682976;29;1282;-88
2024/01/22 00:54:16;;;;;;;2.40;1.70;;;;;;;12.69;46.98;100497.72;679810;29;1626;-87
2024/01/22 00:54:37;;;;;;;3.27;1.80;;;;;;;12.54;47.03;100530.66;680265;29;1310;-87
2024/01/22 00:54:57;;;;;;;3.20;1.80;;;;;;;12.54;47.25;100493.16;680214;29;1227;-86
2024/01/22 00:55:18;;;;;;;5.30;1.63;;;;;;;12.50;47.16;100492.22;680015;29;1511;-86
2024/01/22 00:55:39;;;;;;;5.20;1.70;;;;;;;12.53;47.32;100481.78;675027;29;1235;-88
2024/01/22 00:55:59;;;;;;;5.25;1.70;;;;;;;12.53;46.76;100518.44;675093;29;1232;-88
2024/01/22 00:56:20;;;;;;;3.60;1.87;;;;;;;12.59;47.38;100510.69;675535;29;1927;-88
2024/01/22 00:56:40;;;;;;;5.68;2.00;;;;;;;12.54;46.98;100488.78;683003;29;847;-86
2024/01/22 00:57:01;;;;;;;5.60;1.87;;;;;;;12.60;46.94;100488.88;680166;29;1164;-88
2024/01/22 00:57:21;;;;;;;4.32;1.77;;;;;;;12.65;46.71;100454.06;677417;29;1146;-85
2024/01/22 00:57:42;;;;;;;2.70;1.75;;;;;;;12.42;47.21;100478.16;677677;29;1183;-86
2024/01/22 00:58:03;;;;;;;3.93;1.90;;;;;;;12.34;47.37;100481.53;676950;29;1242;-87
2024/01/22 00:58:23;;;;;;;9.30;1.85;;;;;;;12.33;47.40;100479.75;673504;29;1577;-86
2024/01/22 00:58:45;;;;;;;9.00;1.70;;;;;;;12.23;47.72;100467.38;672462;29;1341;-87
2024/01/22 00:59:07;;;;;;;3.28;1.42;;;;;;;12.47;47.40;100471.22;674992;29;956;-87
2024/01/22 00:59:27;;;;;;;2.10;1.42;;;;;;;12.63;47.19;100463.59;675753;29;1317;-88
2024/01/22 00:59:48;;;;;;;1.92;1.48;;;;;;;12.59;47.16;100467.91;674956;29;1194;-88
2024/01/22 01:00:10;;;;;;;1.70;1.55;;;;;;;12.73;47.00;100479.47;672443;29;1173;-87
2024/01/22 01:00:31;;;;;;;2.22;1.80;;;;;;;12.74;46.63;100456.81;672686;29;1411;-87
2024/01/22 01:00:51;;;;;;;5.20;1.90;;;;;;;12.74;46.57;100464.66;675815;29;1668;-87
2024/01/22 01:01:12;;;;;;;4.85;1.70;;;;;;;12.75;46.84;100459.44;677554;29;1437;-88
2024/01/22 01:01:33;;;;;;;4.57;1.60;;;;;;;12.70;46.94;100452.38;677279;29;1599;-88
2024/01/22 01:01:53;;;;;;;2.40;1.42;;;;;;;12.66;46.78;100489.84;672501;29;1281;-86
2024/01/22 01:02:14;;;;;;;2.30;1.40;;;;;;;12.70;46.69;100461.13;676503;29;981;-87
2024/01/22 01:02:34;;;;;;;2.20;1.40;;;;;;;12.56;46.75;100455.69;677707;29;1065;-87
2024/01/22 01:02:55;;;;;;;1.70;1.52;;;;;;;12.57;46.91;100478.38;675234;29;770;-85
2024/01/22 01:03:15;;;;;;;1.93;1.73;;;;;;;12.61;46.93;100474.06;679457;29;1061;-87
2024/01/22 01:03:36;;;;;;;2.00;1.73;;;;;;;12.61;46.84;100454.00;677681;29;1175;-88
2024/01/22 01:03:57;;;;;;;1.85;1.65;;;;;;;12.51;47.10;100465.19;672514;29;962;-87
2024/01/22 01:04:18;;;;;;;1.90;1.60;;;;;;;12.56;46.92;100454.78;677369;29;1771;-87
2024/01/22 01:04:38;;;;;;;2.05;1.58;;;;;;;12.63;46.97;100456.66;682818;29;1029;-87
2024/01/22 01:04:59;;;;;;;2.17;1.52;;;;;;;12.66;47.06;100472.38;683053;29;749;-88
2024/01/22 01:05:19;;;;;;;2.40;1.55;;;;;;;12.65;46.86;100448.81;677284;29;1459;-87
2024/01/22 01:05:40;;;;;;;2.63;1.60;;;;;;;12.71;46.87;100454.13;680248;29;1154;-86
2024/01/22 01:06:00;;;;;;;2.90;1.50;;;;;;;12.70;46.59;100444.50;677696;29;1277;-86
2024/01/22 01:06:21;;;;;;;2.37;1.33;;;;;;;12.69;46.64;100434.91;677278;29;1573;-87
2024/01/22 01:06:43;;;;;;;2.97;1.40;;;;;;;12.55;47.00;100456.50;677647;29;1313;-87
2024/01/22 01:07:03;;;;;;;3.30;1.40;;;;;;;12.63;47.11;100429.56;677294;29;1147;-85
2024/01/22 01:07:24;;;;;;;3.40;1.50;;;;;;;12.50;47.37;100487.00;674757;29;1501;-86
2024/01/22 01:07:44;;;;;;;2.85;1.55;;;;;;;12.61;47.04;100448.75;677530;29;1278;-87
2024/01/22 01:08:06;;;;;;;2.70;1.60;;;;;;;12.70;47.08;100441.88;682295;29;1191;-86
2024/01/22 01:08:26;;;;;;;3.10;1.70;;;;;;;12.60;46.93;100444.38;674706;29;1473;-86
2024/01/22 01:08:47;;;;;;;4.00;1.60;;;;;;;12.63;47.07;100445.28;677660;29;1188;-87
2024/01/22 01:09:07;;;;;;;3.90;1.60;;;;;;;12.64;46.94;100470.63;680216;29;1281;-87
2024/01/22 01:09:28;;;;;;;4.27;2.00;;;;;;;12.68;46.93;100454.09;680013;29;1547;-86
2024/01/22 01:09:49;;;;;;;3.17;2.00;;;;;;;12.67;47.11;100440.09;680171;29;1226;-86
2024/01/22 01:10:10;;;;;;;3.03;1.90;;;;;;;12.70;46.87;100448.03;680157;29;1156;-87
2024/01/22 01:10:30;;;;;;;2.10;1.50;;;;;;;12.70;46.90;100441.88;680896;29;1587;-86
2024/01/22 01:10:51;;;;;;;1.63;1.40;;;;;;;12.69;46.53;100468.94;680331;29;728;-88
2024/01/22 01:11:12;;;;;;;1.67;1.40;;;;;;;12.67;46.89;100426.16;677635;29;955;-85
2024/01/22 01:11:33;;;;;;;1.43;1.23;;;;;;;12.58;47.10;100443.50;677326;29;1603;-86
2024/01/22 01:11:53;;;;;;;2.50;1.60;;;;;;;12.64;46.78;100431.38;677697;29;822;-87
2024/01/22 01:12:14;;;;;;;2.78;1.65;;;;;;;12.50;47.24;100471.28;677735;29;1077;-86
2024/01/22 01:12:34;;;;;;;4.32;1.92;;;;;;;12.36;47.26;100464.97;677514;29;1252;-87
2024/01/22 01:12:55;;;;;;;4.00;2.00;;;;;;;12.46;47.69;100453.78;681959;28;1287;-87
2024/01/22 01:13:16;;;;;;;2.90;1.83;;;;;;;12.36;47.59;100436.19;677033;29;1514;-85
2024/01/22 01:13:37;;;;;;;1.70;1.50;;;;;;;12.57;47.44;100435.59;677244;29;1161;-87
2024/01/22 01:13:57;;;;;;;2.45;1.35;;;;;;;12.44;47.15;100413.63;680261;29;943;-87
2024/01/22 01:14:18;;;;;;;3.60;1.50;;;;;;;12.56;47.36;100416.44;677330;29;1210;-87
2024/01/22 01:14:39;;;;;;;3.90;1.60;;;;;;;12.64;47.09;100439.22;677611;29;1050;-87
2024/01/22 01:14:59;;;;;;;2.72;1.50;;;;;;;12.74;47.01;100439.34;672446;29;1418;-88
2024/01/22 01:15:22;;;;;;;1.80;1.30;;;;;;;12.52;47.35;100419.84;674657;29;1463;-88
2024/01/22 01:15:42;;;;;;;2.08;1.33;;;;;;;12.61;47.08;100429.56;676401;29;1447;-88
2024/01/22 01:16:03;;;;;;;2.00;1.40;;;;;;;12.67;46.99;100426.16;678861;29;1064;-86
2024/01/22 01:16:24;;;;;;;2.35;1.50;;;;;;;12.66;46.74;100403.47;677288;29;1962;-87
2024/01/22 01:16:44;;;;;;;1.80;1.47;;;;;;;12.61;47.09;100450.50;680229;29;800;-86
2024/01/22 01:17:05;;;;;;;2.08;1.50;;;;;;;12.58;46.95;100419.94;680267;29;1144;-87
2024/01/22 01:17:26;;;;;;;1.90;1.40;;;;;;;12.45;47.16;100441.53;675917;29;1675;-86
2024/01/22 01:17:46;;;;;;;2.40;1.50;;;;;;;12.59;47.50;100431.25;676868;29;1182;-86
2024/01/22 01:18:07;;;;;;;2.70;1.50;;;;;;;12.73;47.01;100411.41;674543;29;1003;-87
2024/01/22 01:18:27;;;;;;;3.10;1.60;;;;;;;12.84;46.65;100434.25;675325;29;1504;-88
2024/01/22 01:18:48;;;;;;;2.70;1.60;;;;;;;12.83;46.72;100406.28;674997;29;1152;-86
2024/01/22 01:19:09;;;;;;;2.20;1.60;;;;;;;12.77;46.85;100406.22;682716;29;1161;-87
2024/01/22 01:19:29;;;;;;;3.90;1.50;;;;;;;12.80;46.64;100422.84;677329;29;1638;-87
2024/01/22 01:19:50;;;;;;;4.13;1.60;;;;;;;12.75;46.88;100420.19;677725;29;785;-88
2024/01/22 01:20:11;;;;;;;4.20;1.70;;;;;;;12.77;46.72;100404.47;674993;29;1171;-87
2024/01/22 01:20:33;;;;;;;2.40;1.90;;;;;;;12.77;46.54;100421.94;674715;29;1548;-87
2024/01/22 01:20:54;;;;;;;5.10;1.60;;;;;;;12.66;47.14;100413.94;677532;29;1071;-87
2024/01/22 01:21:16;;;;;;;5.50;1.50;;;;;;;12.70;46.84;100408.75;677301;29;1587;-86
2024/01/22 01:21:38;;;;;;;7.10;1.40;;;;;;;12.67;47.12;100410.44;675155;29;1439;-88
2024/01/22 01:21:59;;;;;;;3.90;1.48;;;;;;;12.67;46.92;100411.31;675034;29;812;-87
2024/01/22 01:22:19;;;;;;;3.40;1.67;;;;;;;12.73;46.77;100431.47;677305;29;1551;-86
2024/01/22 01:22:40;;;;;;;2.50;1.80;;;;;;;12.66;47.21;100432.25;677027;29;875;-86
2024/01/22 01:23:00;;;;;;;4.87;2.00;;;;;;;12.74;47.08;100394.81;677633;29;729;-87
2024/01/22 01:23:21;;;;;;;4.70;1.80;;;;;;;12.85;46.91;100409.81;677296;29;1454;-87
2024/01/22 01:23:41;;;;;;;5.73;1.90;;;;;;;12.88;46.53;100420.31;674962;29;1188;-88
2024/01/22 01:24:02;;;;;;;4.10;1.70;;;;;;;12.56;46.99;100400.72;680220;29;1191;-86
2024/01/22 01:24:22;;;;;;;3.95;1.70;;;;;;;12.78;47.20;100398.38;678392;29;1539;-88
2024/01/22 01:24:43;;;;;;;2.83;1.60;;;;;;;12.81;46.98;100403.66;680235;29;1035;-87
2024/01/22 01:25:04;;;;;;;2.60;1.85;;;;;;;12.84;46.73;100402.81;680252;29;1192;-87
2024/01/22 01:25:24;;;;;;;2.58;1.70;;;;;;;12.77;46.53;100391.38;683088;28;1476;-86
2024/01/22 01:25:46;;;;;;;2.83;1.50;;;;;;;12.63;47.04;100409.53;682040;29;800;-85
2024/01/22 01:26:07;;;;;;;3.15;1.40;;;;;;;12.74;47.25;100409.66;680090;29;1342;-87
2024/01/22 01:26:27;;;;;;;3.28;1.65;;;;;;;12.87;46.73;100395.00;677309;29;1583;-87
2024/01/22 01:26:48;;;;;;;3.70;1.90;;;;;;;12.79;47.01;100380.94;674983;29;1090;-87
2024/01/22 01:27:09;;;;;;;3.30;2.10;;;;;;;12.79;46.98;100421.06;674918;29;1378;-83
2024/01/22 01:27:32;;;;;;;4.07;2.00;;;;;;;12.68;46.86;100384.31;677381;29;1516;-86
2024/01/22 01:27:53;;;;;;;3.20;1.70;;;;;;;12.71;47.02;100383.44;677136;29;895;-88
2024/01/22 01:28:14;;;;;;;2.90;1.50;;;;;;;12.84;46.67;100380.13;674867;29;1263;-86
2024/01/22 01:28:35;;;;;;;1.75;1.30;;;;;;;12.78;46.85;100421.06;676378;29;1560;-86
2024/01/22 01:28:55;;;;;;;1.67;1.20;;;;;;;12.68;46.90;100407.88;674949;29;1300;-85
2024/01/22 01:29:16;;;;;;;3.10;1.42;;;;;;;12.69;47.14;100400.88;674874;29;1504;-86
2024/01/22 01:29:38;;;;;;;3.37;1.40;;;;;;;12.72;46.91;100446.28;680201;29;1185;-86
2024/01/22 01:29:59;;;;;;;3.25;1.60;;;;;;;12.70;47.08;100384.28;680250;29;840;-88
2024/01/22 01:30:20;;;;;;;1.88;1.60;;;;;;;12.73;46.97;100379.13;671964;29;1538;-88
2024/01/22 01:30:40;;;;;;;1.92;1.60;;;;;;;12.78;47.14;100379.19;677603;29;1296;-88
2024/01/22 01:31:01;;;;;;;2.10;1.70;;;;;;;12.87;46.66;100369.69;677624;29;796;-88
2024/01/22 01:31:22;;;;;;;2.40;1.70;;;;;;;12.90;46.42;100371.44;677313;29;1567;-86
2024/01/22 01:31:42;;;;;;;2.25;1.60;;;;;;;12.81;46.78;100397.53;677529;29;1532;-86
2024/01/22 01:32:03;;;;;;;2.80;1.37;;;;;;;12.85;46.77;100363.53;677764;29;1265;-87
2024/01/22 01:32:26;;;;;;;2.40;1.30;;;;;;;12.86;46.67;100364.44;674116;29;1489;-87
2024/01/22 01:32:46;;;;;;;2.30;1.27;;;;;;;12.83;46.76;100382.72;677739;29;1267;-86
2024/01/22 01:33:07;;;;;;;3.40;1.40;;;;;;;12.86;46.90;100365.28;680071;29;1316;-88
2024/01/22 01:33:27;;;;;;;5.00;1.60;;;;;;;12.87;46.76;100381.91;677336;29;1602;-86
2024/01/22 01:33:48;;;;;;;4.75;1.65;;;;;;;12.69;46.72;100367.72;675000;29;864;-87
2024/01/22 01:34:09;;;;;;;3.20;1.50;;;;;;;12.69;47.01;100379.94;674963;29;990;-86
2024/01/22 01:34:29;;;;;;;3.13;1.50;;;;;;;12.79;46.79;100368.69;679772;29;1447;-87
2024/01/22 01:34:50;;;;;;;5.03;1.50;;;;;;;12.71;46.93;100370.34;680351;29;891;-87
2024/01/22 01:35:11;;;;;;;5.22;1.63;;;;;;;12.77;47.00;100388.75;680201;29;973;-86
2024/01/22 01:35:32;;;;;;;2.93;1.60;;;;;;;12.62;47.45;100363.28;680569;29;1520;-87
2024/01/22 01:35:52;;;;;;;2.00;1.50;;;;;;;12.68;47.30;100365.09;682781;28;1026;-86
2024/01/22 01:36:13;;;;;;;1.92;1.40;;;;;;;12.84;46.98;100372.25;682745;29;1184;-86
2024/01/22 01:36:33;;;;;;;2.47;1.50;;;;;;;12.80;46.98;100365.25;674447;29;1557;-87
2024/01/22 01:36:54;;;;;;;3.53;1.50;;;;;;;12.80;47.06;100390.53;677562;29;1379;-87
2024/01/22 01:37:15;;;;;;;4.47;1.63;;;;;;;12.80;46.91;100385.31;680073;29;1181;-86
2024/01/22 01:37:35;;;;;;;3.70;1.40;;;;;;;12.75;47.12;100346.88;677307;29;1457;-86
2024/01/22 01:37:56;;;;;;;2.78;1.48;;;;;;;12.78;47.02;100382.66;682263;29;1171;-85
2024/01/22 01:38:16;;;;;;;2.10;1.40;;;;;;;12.81;46.90;100367.00;682511;28;1580;-87
2024/01/22 01:38:37;;;;;;;2.27;1.50;;;;;;;12.83;46.97;100353.91;677554;29;996;-87
2024/01/22 01:38:57;;;;;;;2.40;1.52;;;;;;;12.87;46.94;100382.78;677762;29;1078;-86
2024/01/22 01:39:18;;;;;;;2.60;1.65;;;;;;;12.80;47.27;100370.47;674590;29;1478;-85